sensor_id;sensor_type;location;lat;lon;timestamp;pressure;altitude;pressure_sealevel;temperature;humidity
47753;BME280;2038;51.728;6.674;2023-05-08T00:01:50;101362.44;;;16.08;100.00
47753;BME280;2038;51.728;6.674;2023-05-08T00:04:16;101361.41;;;16.04;100.00
47753;BME280;2038;51.728;6.674;2023-05-08T00:06:45;101354.88;;;15.95;100.00
47753;BME280;2038;51.728;6.674;2023-05-08T00:09:11;101356.41;;;15.91;100.00
47753;BME280;2038;51.728;6.674;2023-05-08T00:11:38;101353.56;;;15.86;100.00
47753;BME280;2038;51.728;6.674;2023-05-08T00:14:04;101354.47;;;15.87;100.00
47753;BME280;2038;51.728;6.674;2023-05-08T00:16:31;101353.41;;;15.83;100.00
47753;BME280;2038;51.728;6.674;2023-05-08T00:18:57;101354.56;;;15.88;100.00
47753;BME280;2038;51.728;6.674;2023-05-08T00:21:24;101353.56;;;15.86;100.00
47753;BME280;2038;51.728;6.674;2023-05-08T00:23:51;101353.47;;;15.85;100.00
47753;BME280;2038;51.728;6.674;2023-05-08T00:26:17;101352.38;;;15.80;100.00
47753;BME280;2038;51.728;6.674;2023-05-08T00:28:43;101349.72;;;15.78;100.00
47753;BME280;2038;51.728;6.674;2023-05-08T00:31:10;101351.31;;;15.76;100.00
47753;BME280;2038;51.728;6.674;2023-05-08T00:33:36;101348.03;;;15.79;100.00
47753;BME280;2038;51.728;6.674;2023-05-08T00:36:03;101346.09;;;15.75;100.00
47753;BME280;2038;51.728;6.674;2023-05-08T00:38:31;101350.50;;;15.77;100.00
47753;BME280;2038;51.728;6.674;2023-05-08T00:40:58;101345.59;;;15.66;100.00
47753;BME280;2038;51.728;6.674;2023-05-08T00:43:25;101345.75;;;15.69;100.00
47753;BME280;2038;51.728;6.674;2023-05-08T00:45:54;101344.44;;;15.61;100.00
47753;BME280;2038;51.728;6.674;2023-05-08T00:48:22;101342.13;;;15.65;100.00
47753;BME280;2038;51.728;6.674;2023-05-08T00:50:50;101346.16;;;15.60;100.00
47753;BME280;2038;51.728;6.674;2023-05-08T00:53:19;101350.16;;;15.55;100.00
47753;BME280;2038;51.728;6.674;2023-05-08T00:55:48;101351.03;;;15.56;100.00
47753;BME280;2038;51.728;6.674;2023-05-08T00:58:16;101368.13;;;15.55;100.00
47753;BME280;2038;51.728;6.674;2023-05-08T01:00:45;101362.22;;;15.56;100.00
47753;BME280;2038;51.728;6.674;2023-05-08T01:03:12;101353.44;;;15.53;100.00
47753;BME280;2038;51.728;6.674;2023-05-08T01:05:39;101359.63;;;15.56;100.00
47753;BME280;2038;51.728;6.674;2023-05-08T01:08:06;101352.56;;;15.52;100.00
47753;BME280;2038;51.728;6.674;2023-05-08T01:10:42;101352.47;;;15.51;100.00
47753;BME280;2038;51.728;6.674;2023-05-08T01:16:19;101349.97;;;15.37;100.00
47753;BME280;2038;51.728;6.674;2023-05-08T01:28:34;101348.84;;;15.32;100.00
47753;BME280;2038;51.728;6.674;2023-05-08T01:34:30;101350.13;;;15.24;100.00
47753;BME280;2038;51.728;6.674;2023-05-08T01:37:01;101344.16;;;15.25;100.00
47753;BME280;2038;51.728;6.674;2023-05-08T01:42:38;101351.59;;;15.21;100.00
47753;BME280;2038;51.728;6.674;2023-05-08T01:45:29;101347.81;;;15.14;100.00
47753;BME280;2038;51.728;6.674;2023-05-08T01:48:04;101353.31;;;15.06;100.00
47753;BME280;2038;51.728;6.674;2023-05-08T01:50:47;101356.03;;;15.09;100.00
47753;BME280;2038;51.728;6.674;2023-05-08T01:53:33;101351.53;;;15.05;100.00
47753;BME280;2038;51.728;6.674;2023-05-08T01:56:12;101357.75;;;15.08;100.00
47753;BME280;2038;51.728;6.674;2023-05-08T01:58:44;101361.38;;;15.12;100.00
47753;BME280;2038;51.728;6.674;2023-05-08T02:01:13;101358.28;;;15.03;100.00
47753;BME280;2038;51.728;6.674;2023-05-08T02:03:44;101360.31;;;15.08;100.00
47753;BME280;2038;51.728;6.674;2023-05-08T02:06:13;101367.81;;;15.05;100.00
47753;BME280;2038;51.728;6.674;2023-05-08T02:08:43;101377.47;;;15.09;100.00
47753;BME280;2038;51.728;6.674;2023-05-08T02:11:12;101371.63;;;15.12;100.00
47753;BME280;2038;51.728;6.674;2023-05-08T02:13:41;101369.97;;;15.12;100.00
47753;BME280;2038;51.728;6.674;2023-05-08T02:16:12;101365.81;;;14.99;100.00
47753;BME280;2038;51.728;6.674;2023-05-08T02:18:45;101366.16;;;15.06;100.00
47753;BME280;2038;51.728;6.674;2023-05-08T02:21:15;101370.50;;;15.07;100.00
47753;BME280;2038;51.728;6.674;2023-05-08T02:23:44;101370.31;;;15.04;100.00
47753;BME280;2038;51.728;6.674;2023-05-08T02:26:12;101372.34;;;14.94;100.00
47753;BME280;2038;51.728;6.674;2023-05-08T02:28:41;101367.84;;;14.90;100.00
47753;BME280;2038;51.728;6.674;2023-05-08T02:31:10;101363.75;;;14.94;100.00
47753;BME280;2038;51.728;6.674;2023-05-08T02:33:40;101367.13;;;14.93;100.00
47753;BME280;2038;51.728;6.674;2023-05-08T02:36:12;101368.63;;;14.89;100.00
47753;BME280;2038;51.728;6.674;2023-05-08T02:38:43;101371.34;;;14.92;100.00
47753;BME280;2038;51.728;6.674;2023-05-08T02:41:13;101369.34;;;15.02;100.00
47753;BME280;2038;51.728;6.674;2023-05-08T02:43:42;101369.00;;;14.95;100.00
47753;BME280;2038;51.728;6.674;2023-05-08T02:46:24;101379.44;;;14.98;100.00
47753;BME280;2038;51.728;6.674;2023-05-08T02:52:13;101380.16;;;14.96;100.00
47753;BME280;2038;51.728;6.674;2023-05-08T02:58:07;101373.50;;;14.85;100.00
47753;BME280;2038;51.728;6.674;2023-05-08T03:00:52;101370.69;;;14.80;100.00
47753;BME280;2038;51.728;6.674;2023-05-08T03:03:39;101370.41;;;14.76;100.00
47753;BME280;2038;51.728;6.674;2023-05-08T03:06:12;101364.38;;;14.75;100.00
47753;BME280;2038;51.728;6.674;2023-05-08T03:08:42;101368.53;;;14.73;100.00
47753;BME280;2038;51.728;6.674;2023-05-08T03:11:15;101375.00;;;14.67;100.00
47753;BME280;2038;51.728;6.674;2023-05-08T03:13:47;101375.72;;;14.64;100.00
47753;BME280;2038;51.728;6.674;2023-05-08T03:16:19;101378.34;;;14.66;100.00
47753;BME280;2038;51.728;6.674;2023-05-08T03:19:02;101372.94;;;14.61;100.00
47753;BME280;2038;51.728;6.674;2023-05-08T03:21:32;101373.66;;;14.59;100.00
47753;BME280;2038;51.728;6.674;2023-05-08T03:24:03;101371.72;;;14.55;100.00
47753;BME280;2038;51.728;6.674;2023-05-08T03:26:32;101375.16;;;14.55;100.00
47753;BME280;2038;51.728;6.674;2023-05-08T03:28:59;101372.66;;;14.42;100.00
47753;BME280;2038;51.728;6.674;2023-05-08T03:31:26;101376.84;;;14.55;100.00
47753;BME280;2038;51.728;6.674;2023-05-08T03:33:53;101376.94;;;14.56;100.00
47753;BME280;2038;51.728;6.674;2023-05-08T03:36:21;101381.06;;;14.54;100.00
47753;BME280;2038;51.728;6.674;2023-05-08T03:38:49;101383.66;;;14.54;100.00
47753;BME280;2038;51.728;6.674;2023-05-08T03:41:16;101372.50;;;14.53;100.00
47753;BME280;2038;51.728;6.674;2023-05-08T03:43:43;101375.66;;;14.49;100.00
47753;BME280;2038;51.728;6.674;2023-05-08T03:46:11;101383.53;;;14.52;100.00
47753;BME280;2038;51.728;6.674;2023-05-08T03:48:39;101371.88;;;14.43;100.00
47753;BME280;2038;51.728;6.674;2023-05-08T03:51:06;101370.47;;;14.48;100.00
47753;BME280;2038;51.728;6.674;2023-05-08T03:53:32;101365.13;;;14.45;100.00
47753;BME280;2038;51.728;6.674;2023-05-08T03:56:00;101366.56;;;14.40;100.00
47753;BME280;2038;51.728;6.674;2023-05-08T04:01:36;101375.94;;;14.26;100.00
47753;BME280;2038;51.728;6.674;2023-05-08T04:04:37;101372.50;;;14.26;100.00
47753;BME280;2038;51.728;6.674;2023-05-08T04:07:06;101373.66;;;14.31;100.00
47753;BME280;2038;51.728;6.674;2023-05-08T04:10:08;101373.22;;;14.23;100.00
47753;BME280;2038;51.728;6.674;2023-05-08T04:15:49;101382.56;;;14.23;100.00
47753;BME280;2038;51.728;6.674;2023-05-08T04:18:27;101378.41;;;14.25;100.00
47753;BME280;2038;51.728;6.674;2023-05-08T04:20:56;101379.75;;;14.33;100.00
47753;BME280;2038;51.728;6.674;2023-05-08T04:23:24;101381.53;;;14.34;100.00
47753;BME280;2038;51.728;6.674;2023-05-08T04:25:53;101380.25;;;14.40;100.00
47753;BME280;2038;51.728;6.674;2023-05-08T04:28:21;101374.06;;;14.37;100.00
47753;BME280;2038;51.728;6.674;2023-05-08T04:30:47;101376.72;;;14.38;100.00
47753;BME280;2038;51.728;6.674;2023-05-08T04:33:15;101377.97;;;14.45;100.00
47753;BME280;2038;51.728;6.674;2023-05-08T04:35:43;101381.06;;;14.54;100.00
47753;BME280;2038;51.728;6.674;2023-05-08T04:38:11;101386.09;;;14.52;100.00
47753;BME280;2038;51.728;6.674;2023-05-08T04:40:37;101382.41;;;14.47;100.00
47753;BME280;2038;51.728;6.674;2023-05-08T04:43:03;101377.78;;;14.57;100.00
47753;BME280;2038;51.728;6.674;2023-05-08T04:45:29;101380.72;;;14.48;100.00
47753;BME280;2038;51.728;6.674;2023-05-08T04:47:56;101380.25;;;14.40;100.00
47753;BME280;2038;51.728;6.674;2023-05-08T04:50:22;101382.25;;;14.31;100.00
47753;BME280;2038;51.728;6.674;2023-05-08T04:52:48;101376.91;;;14.41;100.00
47753;BME280;2038;51.728;6.674;2023-05-08T04:55:14;101382.56;;;14.50;100.00
47753;BME280;2038;51.728;6.674;2023-05-08T04:57:41;101384.16;;;14.48;100.00
47753;BME280;2038;51.728;6.674;2023-05-08T05:00:07;101386.66;;;14.62;100.00
47753;BME280;2038;51.728;6.674;2023-05-08T05:02:34;101394.91;;;14.56;100.00
47753;BME280;2038;51.728;6.674;2023-05-08T05:05:00;101394.78;;;14.55;100.00
47753;BME280;2038;51.728;6.674;2023-05-08T05:07:26;101392.06;;;14.51;100.00
47753;BME280;2038;51.728;6.674;2023-05-08T05:09:53;101395.41;;;14.50;100.00
47753;BME280;2038;51.728;6.674;2023-05-08T05:12:19;101399.31;;;14.59;100.00
47753;BME280;2038;51.728;6.674;2023-05-08T05:14:45;101397.91;;;14.64;100.00
47753;BME280;2038;51.728;6.674;2023-05-08T05:17:11;101405.06;;;14.69;100.00
47753;BME280;2038;51.728;6.674;2023-05-08T05:19:37;101399.25;;;14.72;100.00
47753;BME280;2038;51.728;6.674;2023-05-08T05:22:04;101401.81;;;14.72;100.00
47753;BME280;2038;51.728;6.674;2023-05-08T05:24:31;101404.66;;;14.76;100.00
47753;BME280;2038;51.728;6.674;2023-05-08T05:26:58;101402.44;;;14.82;100.00
47753;BME280;2038;51.728;6.674;2023-05-08T05:29:25;101398.53;;;14.89;100.00
47753;BME280;2038;51.728;6.674;2023-05-08T05:31:51;101403.50;;;14.86;100.00
47753;BME280;2038;51.728;6.674;2023-05-08T05:34:17;101407.13;;;14.89;100.00
47753;BME280;2038;51.728;6.674;2023-05-08T05:36:43;101400.75;;;14.97;100.00
47753;BME280;2038;51.728;6.674;2023-05-08T05:39:10;101397.31;;;15.12;100.00
47753;BME280;2038;51.728;6.674;2023-05-08T05:41:36;101406.25;;;15.18;100.00
47753;BME280;2038;51.728;6.674;2023-05-08T05:44:02;101407.94;;;15.18;100.00
47753;BME280;2038;51.728;6.674;2023-05-08T05:46:29;101407.84;;;15.16;100.00
47753;BME280;2038;51.728;6.674;2023-05-08T05:49:00;101410.22;;;15.28;100.00
47753;BME280;2038;51.728;6.674;2023-05-08T05:51:26;101413.69;;;15.28;100.00
47753;BME280;2038;51.728;6.674;2023-05-08T05:53:52;101410.50;;;15.32;100.00
47753;BME280;2038;51.728;6.674;2023-05-08T05:56:19;101410.31;;;15.29;100.00
47753;BME280;2038;51.728;6.674;2023-05-08T05:58:46;101414.91;;;15.35;100.00
47753;BME280;2038;51.728;6.674;2023-05-08T06:01:12;101419.78;;;15.30;100.00
47753;BME280;2038;51.728;6.674;2023-05-08T06:03:39;101433.63;;;15.32;100.00
47753;BME280;2038;51.728;6.674;2023-05-08T06:06:05;101432.78;;;15.33;100.00
47753;BME280;2038;51.728;6.674;2023-05-08T06:08:32;101435.72;;;15.39;100.00
47753;BME280;2038;51.728;6.674;2023-05-08T06:10:58;101433.88;;;15.52;100.00
47753;BME280;2038;51.728;6.674;2023-05-08T06:13:24;101433.25;;;15.56;100.00
47753;BME280;2038;51.728;6.674;2023-05-08T06:15:52;101435.28;;;15.61;100.00
47753;BME280;2038;51.728;6.674;2023-05-08T06:18:21;101433.25;;;15.56;100.00
47753;BME280;2038;51.728;6.674;2023-05-08T06:20:47;101426.50;;;15.58;100.00
47753;BME280;2038;51.728;6.674;2023-05-08T06:23:13;101427.41;;;15.58;100.00
47753;BME280;2038;51.728;6.674;2023-05-08T06:25:40;101433.53;;;15.60;100.00
47753;BME280;2038;51.728;6.674;2023-05-08T06:28:06;101432.00;;;15.64;100.00
47753;BME280;2038;51.728;6.674;2023-05-08T06:30:33;101441.81;;;15.71;100.00
47753;BME280;2038;51.728;6.674;2023-05-08T06:32:59;101439.81;;;15.81;100.00
47753;BME280;2038;51.728;6.674;2023-05-08T06:35:25;101447.31;;;16.08;100.00
47753;BME280;2038;51.728;6.674;2023-05-08T06:37:52;101443.53;;;16.17;100.00
47753;BME280;2038;51.728;6.674;2023-05-08T06:40:18;101443.28;;;16.29;100.00
47753;BME280;2038;51.728;6.674;2023-05-08T06:42:44;101447.25;;;16.38;100.00
47753;BME280;2038;51.728;6.674;2023-05-08T06:45:11;101444.28;;;16.47;100.00
47753;BME280;2038;51.728;6.674;2023-05-08T06:47:37;101448.00;;;16.52;100.00
47753;BME280;2038;51.728;6.674;2023-05-08T06:50:04;101448.00;;;16.68;100.00
47753;BME280;2038;51.728;6.674;2023-05-08T06:52:31;101446.88;;;16.79;100.00
47753;BME280;2038;51.728;6.674;2023-05-08T06:54:57;101446.75;;;16.94;100.00
47753;BME280;2038;51.728;6.674;2023-05-08T06:57:24;101443.69;;;17.01;100.00
47753;BME280;2038;51.728;6.674;2023-05-08T06:59:52;101445.34;;;17.17;100.00
47753;BME280;2038;51.728;6.674;2023-05-08T07:02:18;101443.44;;;17.30;100.00
47753;BME280;2038;51.728;6.674;2023-05-08T07:04:45;101443.09;;;17.41;100.00
47753;BME280;2038;51.728;6.674;2023-05-08T07:07:11;101441.78;;;17.49;100.00
47753;BME280;2038;51.728;6.674;2023-05-08T07:09:39;101440.84;;;17.64;100.00
47753;BME280;2038;51.728;6.674;2023-05-08T07:12:05;101436.34;;;17.78;100.00
47753;BME280;2038;51.728;6.674;2023-05-08T07:14:33;101444.59;;;17.89;100.00
47753;BME280;2038;51.728;6.674;2023-05-08T07:17:03;101437.69;;;18.07;100.00
47753;BME280;2038;51.728;6.674;2023-05-08T07:19:36;101444.84;;;18.12;100.00
47753;BME280;2038;51.728;6.674;2023-05-08T07:22:04;101446.13;;;18.22;100.00
47753;BME280;2038;51.728;6.674;2023-05-08T07:24:31;101452.16;;;18.40;100.00
47753;BME280;2038;51.728;6.674;2023-05-08T07:26:57;101453.41;;;18.50;100.00
47753;BME280;2038;51.728;6.674;2023-05-08T07:29:25;101453.06;;;18.60;100.00
47753;BME280;2038;51.728;6.674;2023-05-08T07:31:51;101460.88;;;18.61;100.00
47753;BME280;2038;51.728;6.674;2023-05-08T07:34:18;101458.47;;;18.66;100.00
47753;BME280;2038;51.728;6.674;2023-05-08T07:36:44;101454.38;;;18.69;100.00
47753;BME280;2038;51.728;6.674;2023-05-08T07:39:10;101454.06;;;18.63;100.00
47753;BME280;2038;51.728;6.674;2023-05-08T07:41:36;101462.97;;;18.70;100.00
47753;BME280;2038;51.728;6.674;2023-05-08T07:44:05;101463.03;;;18.72;100.00
47753;BME280;2038;51.728;6.674;2023-05-08T07:46:31;101462.09;;;18.89;100.00
47753;BME280;2038;51.728;6.674;2023-05-08T07:48:58;101461.28;;;19.10;100.00
47753;BME280;2038;51.728;6.674;2023-05-08T07:51:24;101454.50;;;19.12;100.00
47753;BME280;2038;51.728;6.674;2023-05-08T07:53:51;101451.47;;;19.23;100.00
47753;BME280;2038;51.728;6.674;2023-05-08T07:56:17;101456.31;;;19.36;100.00
47753;BME280;2038;51.728;6.674;2023-05-08T07:58:43;101448.28;;;19.49;100.00
47753;BME280;2038;51.728;6.674;2023-05-08T08:01:10;101451.59;;;19.67;100.00
47753;BME280;2038;51.728;6.674;2023-05-08T08:03:37;101450.28;;;19.77;100.00
47753;BME280;2038;51.728;6.674;2023-05-08T08:06:03;101445.28;;;19.81;100.00
47753;BME280;2038;51.728;6.674;2023-05-08T08:08:29;101443.56;;;19.82;100.00
47753;BME280;2038;51.728;6.674;2023-05-08T08:10:55;101439.38;;;20.07;100.00
47753;BME280;2038;51.728;6.674;2023-05-08T08:13:22;101449.84;;;20.10;100.00
47753;BME280;2038;51.728;6.674;2023-05-08T08:15:48;101446.03;;;20.01;100.00
47753;BME280;2038;51.728;6.674;2023-05-08T08:18:14;101440.56;;;20.16;100.00
47753;BME280;2038;51.728;6.674;2023-05-08T08:20:40;101442.69;;;20.26;100.00
47753;BME280;2038;51.728;6.674;2023-05-08T08:23:07;101444.25;;;20.22;100.00
47753;BME280;2038;51.728;6.674;2023-05-08T08:25:33;101446.91;;;20.24;100.00
47753;BME280;2038;51.728;6.674;2023-05-08T08:27:59;101449.19;;;20.38;100.00
47753;BME280;2038;51.728;6.674;2023-05-08T08:30:26;101443.47;;;20.47;100.00
47753;BME280;2038;51.728;6.674;2023-05-08T08:32:52;101447.94;;;20.51;100.00
47753;BME280;2038;51.728;6.674;2023-05-08T08:35:18;101447.19;;;20.53;100.00
47753;BME280;2038;51.728;6.674;2023-05-08T08:37:45;101446.78;;;20.67;100.00
47753;BME280;2038;51.728;6.674;2023-05-08T08:40:11;101452.09;;;20.95;100.00
47753;BME280;2038;51.728;6.674;2023-05-08T08:42:37;101451.53;;;21.03;100.00
47753;BME280;2038;51.728;6.674;2023-05-08T08:45:04;101454.09;;;21.02;100.00
47753;BME280;2038;51.728;6.674;2023-05-08T08:47:35;101457.97;;;21.13;100.00
47753;BME280;2038;51.728;6.674;2023-05-08T08:50:08;101448.44;;;21.12;100.00
47753;BME280;2038;51.728;6.674;2023-05-08T08:52:46;101447.25;;;21.04;100.00
47753;BME280;2038;51.728;6.674;2023-05-08T08:55:16;101450.72;;;21.05;100.00
47753;BME280;2038;51.728;6.674;2023-05-08T08:57:51;101450.91;;;21.11;100.00
47753;BME280;2038;51.728;6.674;2023-05-08T09:00:29;101446.91;;;21.19;100.00
47753;BME280;2038;51.728;6.674;2023-05-08T09:02:57;101455.38;;;21.13;100.00
47753;BME280;2038;51.728;6.674;2023-05-08T09:05:25;101456.19;;;21.12;100.00
47753;BME280;2038;51.728;6.674;2023-05-08T09:07:54;101453.84;;;21.18;100.00
47753;BME280;2038;51.728;6.674;2023-05-08T09:10:22;101450.38;;;21.19;100.00
47753;BME280;2038;51.728;6.674;2023-05-08T09:12:49;101450.22;;;21.15;100.00
47753;BME280;2038;51.728;6.674;2023-05-08T09:15:15;101455.00;;;21.28;100.00
47753;BME280;2038;51.728;6.674;2023-05-08T09:17:41;101451.13;;;21.15;100.00
47753;BME280;2038;51.728;6.674;2023-05-08T09:20:08;101453.28;;;21.28;100.00
47753;BME280;2038;51.728;6.674;2023-05-08T09:22:36;101458.28;;;21.22;100.00
47753;BME280;2038;51.728;6.674;2023-05-08T09:25:04;101456.72;;;21.27;100.00
47753;BME280;2038;51.728;6.674;2023-05-08T09:27:31;101455.63;;;21.46;100.00
47753;BME280;2038;51.728;6.674;2023-05-08T09:32:33;101452.53;;;21.58;100.00
47753;BME280;2038;51.728;6.674;2023-05-08T09:35:01;101456.41;;;21.70;100.00
47753;BME280;2038;51.728;6.674;2023-05-08T09:37:30;101457.38;;;21.74;98.11
47753;BME280;2038;51.728;6.674;2023-05-08T09:40:19;101460.97;;;21.79;97.56
47753;BME280;2038;51.728;6.674;2023-05-08T09:42:48;101447.91;;;21.76;97.65
47753;BME280;2038;51.728;6.674;2023-05-08T09:45:28;101438.75;;;21.87;96.63
47753;BME280;2038;51.728;6.674;2023-05-08T09:47:56;101451.72;;;21.87;98.12
47753;BME280;2038;51.728;6.674;2023-05-08T09:50:22;101450.47;;;22.01;96.68
47753;BME280;2038;51.728;6.674;2023-05-08T09:52:49;101452.69;;;22.17;94.02
47753;BME280;2038;51.728;6.674;2023-05-08T09:55:16;101442.44;;;22.22;96.67
47753;BME280;2038;51.728;6.674;2023-05-08T09:57:59;101440.28;;;22.37;97.65
47753;BME280;2038;51.728;6.674;2023-05-08T10:00:26;101436.59;;;22.29;97.06
47753;BME280;2038;51.728;6.674;2023-05-08T10:03:12;101439.81;;;22.50;95.26
47753;BME280;2038;51.728;6.674;2023-05-08T10:05:38;101439.34;;;22.65;93.68
47753;BME280;2038;51.728;6.674;2023-05-08T10:08:21;101438.81;;;22.76;96.50
47753;BME280;2038;51.728;6.674;2023-05-08T10:10:48;101430.44;;;22.87;93.78
47753;BME280;2038;51.728;6.674;2023-05-08T10:13:14;101436.03;;;23.02;96.16
47753;BME280;2038;51.728;6.674;2023-05-08T10:15:42;101427.94;;;22.91;95.68
47753;BME280;2038;51.728;6.674;2023-05-08T10:18:10;101435.06;;;22.98;91.83
47753;BME280;2038;51.728;6.674;2023-05-08T10:20:42;101440.66;;;23.13;91.81
47753;BME280;2038;51.728;6.674;2023-05-08T10:23:17;101437.19;;;23.13;94.20
47753;BME280;2038;51.728;6.674;2023-05-08T10:25:50;101437.88;;;23.07;95.37
47753;BME280;2038;51.728;6.674;2023-05-08T10:30:57;101435.41;;;23.12;92.77
47753;BME280;2038;51.728;6.674;2023-05-08T10:33:29;101439.66;;;23.08;92.78
47753;BME280;2038;51.728;6.674;2023-05-08T10:35:59;101441.63;;;23.17;86.97
47753;BME280;2038;51.728;6.674;2023-05-08T10:38:26;101436.38;;;23.15;88.87
47753;BME280;2038;51.728;6.674;2023-05-08T10:40:53;101440.03;;;23.22;85.24
47753;BME280;2038;51.728;6.674;2023-05-08T10:43:26;101429.75;;;23.28;85.55
47753;BME280;2038;51.728;6.674;2023-05-08T10:45:55;101438.44;;;23.28;83.85
47753;BME280;2038;51.728;6.674;2023-05-08T10:48:30;101442.31;;;23.44;82.23
47753;BME280;2038;51.728;6.674;2023-05-08T10:54:17;101429.78;;;23.64;86.53
47753;BME280;2038;51.728;6.674;2023-05-08T10:56:49;101423.69;;;23.63;83.09
47753;BME280;2038;51.728;6.674;2023-05-08T10:59:19;101423.81;;;23.68;82.68
47753;BME280;2038;51.728;6.674;2023-05-08T11:01:49;101424.75;;;23.71;85.50
47753;BME280;2038;51.728;6.674;2023-05-08T11:04:22;101424.06;;;23.80;85.91
47753;BME280;2038;51.728;6.674;2023-05-08T11:06:49;101414.69;;;23.87;86.12
47753;BME280;2038;51.728;6.674;2023-05-08T11:09:26;101426.00;;;23.89;87.43
47753;BME280;2038;51.728;6.674;2023-05-08T11:12:26;101419.03;;;23.86;83.38
47753;BME280;2038;51.728;6.674;2023-05-08T11:15:03;101421.34;;;23.74;85.29
47753;BME280;2038;51.728;6.674;2023-05-08T11:17:31;101420.78;;;23.87;86.30
47753;BME280;2038;51.728;6.674;2023-05-08T11:20:01;101417.09;;;23.77;84.81
47753;BME280;2038;51.728;6.674;2023-05-08T11:22:31;101414.38;;;23.73;86.15
47753;BME280;2038;51.728;6.674;2023-05-08T11:25:06;101410.78;;;23.68;87.21
47753;BME280;2038;51.728;6.674;2023-05-08T11:30:37;101404.75;;;23.69;88.70
47753;BME280;2038;51.728;6.674;2023-05-08T11:35:57;101403.75;;;23.64;88.85
47753;BME280;2038;51.728;6.674;2023-05-08T11:38:33;101405.19;;;23.51;88.45
47753;BME280;2038;51.728;6.674;2023-05-08T11:41:05;101413.16;;;23.57;87.17
47753;BME280;2038;51.728;6.674;2023-05-08T11:46:18;101405.47;;;23.63;84.72
47753;BME280;2038;51.728;6.674;2023-05-08T11:48:45;101410.00;;;23.70;86.97
47753;BME280;2038;51.728;6.674;2023-05-08T11:51:12;101410.63;;;23.60;84.61
47753;BME280;2038;51.728;6.674;2023-05-08T11:53:43;101405.44;;;23.62;85.86
47753;BME280;2038;51.728;6.674;2023-05-08T11:56:09;101397.59;;;23.60;85.79
47753;BME280;2038;51.728;6.674;2023-05-08T11:58:36;101391.22;;;23.48;86.74
47753;BME280;2038;51.728;6.674;2023-05-08T12:01:02;101396.97;;;23.35;85.89
47753;BME280;2038;51.728;6.674;2023-05-08T12:03:28;101394.38;;;23.36;85.12
47753;BME280;2038;51.728;6.674;2023-05-08T12:05:56;101398.00;;;23.41;84.23
47753;BME280;2038;51.728;6.674;2023-05-08T12:08:23;101399.59;;;23.36;87.11
47753;BME280;2038;51.728;6.674;2023-05-08T12:10:52;101400.53;;;23.40;87.30
47753;BME280;2038;51.728;6.674;2023-05-08T12:13:22;101391.41;;;23.55;86.62
47753;BME280;2038;51.728;6.674;2023-05-08T12:15:55;101393.31;;;23.62;86.70
47753;BME280;2038;51.728;6.674;2023-05-08T12:18:24;101397.00;;;23.72;85.71
47753;BME280;2038;51.728;6.674;2023-05-08T12:21:01;101393.63;;;23.40;82.27
47753;BME280;2038;51.728;6.674;2023-05-08T12:23:29;101395.16;;;23.66;85.13
47753;BME280;2038;51.728;6.674;2023-05-08T12:25:59;101393.34;;;23.64;83.05
47753;BME280;2038;51.728;6.674;2023-05-08T12:28:26;101393.72;;;23.79;84.14
47753;BME280;2038;51.728;6.674;2023-05-08T12:30:53;101392.66;;;23.71;82.65
47753;BME280;2038;51.728;6.674;2023-05-08T12:33:20;101393.31;;;23.62;84.41
47753;BME280;2038;51.728;6.674;2023-05-08T12:35:46;101393.22;;;23.59;83.89
47753;BME280;2038;51.728;6.674;2023-05-08T12:38:13;101396.75;;;23.61;83.24
47753;BME280;2038;51.728;6.674;2023-05-08T12:40:44;101391.50;;;23.60;85.10
47753;BME280;2038;51.728;6.674;2023-05-08T12:43:17;101384.69;;;23.65;86.10
47753;BME280;2038;51.728;6.674;2023-05-08T12:45:44;101386.56;;;23.70;85.00
47753;BME280;2038;51.728;6.674;2023-05-08T12:48:14;101382.16;;;23.68;83.15
47753;BME280;2038;51.728;6.674;2023-05-08T12:50:42;101389.00;;;23.63;82.16
47753;BME280;2038;51.728;6.674;2023-05-08T12:53:12;101389.78;;;23.60;82.47
47753;BME280;2038;51.728;6.674;2023-05-08T12:55:56;101384.47;;;23.54;81.66
47753;BME280;2038;51.728;6.674;2023-05-08T12:58:27;101383.97;;;23.70;82.48
47753;BME280;2038;51.728;6.674;2023-05-08T13:01:11;101382.41;;;23.80;83.63
47753;BME280;2038;51.728;6.674;2023-05-08T13:03:39;101378.16;;;23.84;82.78
47753;BME280;2038;51.728;6.674;2023-05-08T13:06:06;101377.41;;;23.89;82.76
47753;BME280;2038;51.728;6.674;2023-05-08T13:08:37;101378.25;;;23.87;80.69
47753;BME280;2038;51.728;6.674;2023-05-08T13:11:05;101367.94;;;23.93;81.20
47753;BME280;2038;51.728;6.674;2023-05-08T13:13:34;101369.88;;;24.01;82.74
47753;BME280;2038;51.728;6.674;2023-05-08T13:16:06;101367.59;;;24.15;80.42
47753;BME280;2038;51.728;6.674;2023-05-08T13:18:33;101372.56;;;24.07;80.84
47753;BME280;2038;51.728;6.674;2023-05-08T13:21:01;101366.53;;;24.08;79.52
47753;BME280;2038;51.728;6.674;2023-05-08T13:23:28;101364.19;;;24.20;79.70
47753;BME280;2038;51.728;6.674;2023-05-08T13:25:55;101364.19;;;24.19;79.56
47753;BME280;2038;51.728;6.674;2023-05-08T13:28:21;101356.53;;;24.28;79.17
47753;BME280;2038;51.728;6.674;2023-05-08T13:30:47;101355.28;;;24.09;76.92
47753;BME280;2038;51.728;6.674;2023-05-08T13:33:14;101347.59;;;24.15;77.57
47753;BME280;2038;51.728;6.674;2023-05-08T13:35:40;101348.72;;;24.28;80.25
47753;BME280;2038;51.728;6.674;2023-05-08T13:38:06;101345.47;;;24.40;80.19
47753;BME280;2038;51.728;6.674;2023-05-08T13:40:33;101347.13;;;24.36;76.98
47753;BME280;2038;51.728;6.674;2023-05-08T13:42:59;101347.03;;;24.30;78.20
47753;BME280;2038;51.728;6.674;2023-05-08T13:45:25;101345.97;;;24.20;76.35
47753;BME280;2038;51.728;6.674;2023-05-08T13:47:51;101348.78;;;23.89;77.09
47753;BME280;2038;51.728;6.674;2023-05-08T13:50:18;101340.91;;;23.86;76.83
47753;BME280;2038;51.728;6.674;2023-05-08T13:52:46;101333.16;;;23.89;78.17